Time;durP1;ratioP1;P1;durP2;ratioP2;P2;SDS_P1;SDS_P2;PMS_P1;PMS_P2;Temp;Humidity;BMP_temperature;BMP_pressure;BME280_temperature;BME280_humidity;BME280_pressure;Samples;Min_cycle;Max_cycle;Signal;HPM_P1;HPM_P2
2021/08/08 00:01:59;;;;;;;8.07;7.67;;;23.20;99.40;;;;;;3626249;39;20569;-56
2021/08/08 00:04:27;;;;;;;8.53;8.10;;;23.20;99.40;;;;;;3625969;39;20457;-58
2021/08/08 00:06:55;;;;;;;8.40;8.00;;;23.20;99.40;;;;;;3626141;39;20450;-58
2021/08/08 00:09:22;;;;;;;8.20;7.80;;;23.10;99.30;;;;;;3625934;39;20482;-56
2021/08/08 00:11:50;;;;;;;8.30;7.80;;;23.20;99.40;;;;;;3626415;39;20459;-58
2021/08/08 00:14:18;;;;;;;8.50;7.97;;;23.20;99.40;;;;;;3625603;39;20462;-58
2021/08/08 00:16:46;;;;;;;8.70;8.30;;;23.20;99.40;;;;;;3625586;39;20442;-58
2021/08/08 00:19:13;;;;;;;8.40;8.00;;;23.20;99.40;;;;;;3624696;39;20450;-57
2021/08/08 00:21:41;;;;;;;8.13;7.70;;;23.20;99.40;;;;;;3625648;39;20443;-57
2021/08/08 00:24:09;;;;;;;7.53;7.23;;;23.20;99.30;;;;;;3625234;39;20450;-58
2021/08/08 00:26:37;;;;;;;8.10;7.60;;;23.20;99.30;;;;;;3625152;39;20560;-57
2021/08/08 00:29:04;;;;;;;7.70;7.40;;;23.20;99.30;;;;;;3625278;39;20466;-57
2021/08/08 00:31:32;;;;;;;8.27;7.87;;;23.20;99.30;;;;;;3624414;39;20474;-58
2021/08/08 00:34:06;;;;;;;8.70;8.30;;;23.20;99.30;;;;;;3626766;39;20465;-58
2021/08/08 00:36:35;;;;;;;8.00;7.70;;;23.20;99.30;;;;;;3626393;39;20473;-58
2021/08/08 00:39:04;;;;;;;8.50;8.10;;;23.20;99.30;;;;;;3626509;39;20458;-55
2021/08/08 00:41:34;;;;;;;8.43;7.90;;;23.20;99.30;;;;;;3626293;39;21049;-57
2021/08/08 00:44:03;;;;;;;7.63;7.33;;;23.20;99.30;;;;;;3625913;39;20474;-58
2021/08/08 00:46:31;;;;;;;7.50;7.10;;;23.20;99.30;;;;;;3625465;39;20457;-57
2021/08/08 00:49:00;;;;;;;7.30;7.00;;;23.20;99.30;;;;;;3626659;39;20840;-57
2021/08/08 00:51:28;;;;;;;7.93;7.53;;;23.20;99.30;;;;;;3626732;39;20443;-57
2021/08/08 00:53:56;;;;;;;7.60;7.30;;;23.20;99.30;;;;;;3627234;39;20494;-55
2021/08/08 00:56:28;;;;;;;8.40;7.90;;;23.20;99.30;;;;;;3626441;39;20443;-57
2021/08/08 00:58:58;;;;;;;7.90;7.60;;;23.20;99.30;;;;;;3626136;39;20450;-59
2021/08/08 01:01:33;;;;;;;8.20;7.70;;;23.20;99.30;;;;;;3627390;39;20531;-56
2021/08/08 01:04:06;;;;;;;8.07;7.70;;;23.20;99.20;;;;;;3627135;39;20469;-58
2021/08/08 01:06:42;;;;;;;8.03;7.53;;;23.20;99.20;;;;;;3625900;39;20505;-57
2021/08/08 01:09:12;;;;;;;7.63;7.30;;;23.20;99.20;;;;;;3626424;39;20462;-55
2021/08/08 01:11:41;;;;;;;7.73;7.43;;;23.20;99.20;;;;;;3627285;39;21057;-57
2021/08/08 01:14:13;;;;;;;8.30;7.80;;;23.20;99.20;;;;;;3625766;39;20450;-55
2021/08/08 01:16:48;;;;;;;8.00;7.60;;;23.20;99.20;;;;;;3625695;39;20454;-57
2021/08/08 01:19:21;;;;;;;8.17;7.57;;;23.20;99.20;;;;;;3626113;39;20821;-58
2021/08/08 01:21:52;;;;;;;7.90;7.60;;;23.20;99.20;;;;;;3617686;39;20463;-58
2021/08/08 01:24:23;;;;;;;8.43;8.00;;;23.20;99.20;;;;;;3626221;39;20453;-58
2021/08/08 01:26:52;;;;;;;8.43;7.93;;;23.20;99.20;;;;;;3626029;39;20467;-56
2021/08/08 01:29:21;;;;;;;8.40;8.00;;;23.20;99.20;;;;;;3625778;39;20498;-58
2021/08/08 01:31:51;;;;;;;7.97;7.47;;;23.20;99.20;;;;;;3626044;39;20458;-57
2021/08/08 01:34:20;;;;;;;8.20;7.90;;;23.20;99.20;;;;;;3625796;39;20467;-56
2021/08/08 01:36:49;;;;;;;8.20;7.80;;;23.20;99.20;;;;;;3626298;39;20467;-58
2021/08/08 01:39:20;;;;;;;8.57;7.90;;;23.20;99.10;;;;;;3626897;39;20507;-58
2021/08/08 01:41:52;;;;;;;8.53;8.13;;;23.20;99.10;;;;;;3626313;39;20727;-58
2021/08/08 01:44:21;;;;;;;8.17;7.83;;;23.20;99.10;;;;;;3626131;39;20466;-59
2021/08/08 01:46:54;;;;;;;7.90;7.50;;;23.20;99.10;;;;;;3625305;39;20551;-59
2021/08/08 01:49:27;;;;;;;8.00;7.60;;;23.20;99.10;;;;;;3626949;39;20465;-57
2021/08/08 01:51:57;;;;;;;7.90;7.60;;;23.20;99.10;;;;;;3625915;39;20536;-56
2021/08/08 01:54:30;;;;;;;7.70;7.40;;;23.20;99.10;;;;;;3626070;39;20572;-58
2021/08/08 01:57:05;;;;;;;7.87;7.47;;;23.20;99.10;;;;;;3626915;39;20442;-58
2021/08/08 01:59:33;;;;;;;8.20;7.67;;;23.20;99.10;;;;;;3625916;39;20443;-58
2021/08/08 02:02:10;;;;;;;8.00;7.60;;;23.20;99.10;;;;;;3625737;39;20929;-57
2021/08/08 02:04:40;;;;;;;8.37;8.00;;;23.20;99.10;;;;;;3624925;39;20455;-56
2021/08/08 02:07:15;;;;;;;8.47;7.97;;;23.20;99.10;;;;;;3624861;39;21022;-57
2021/08/08 02:09:44;;;;;;;8.13;7.80;;;23.20;99.00;;;;;;3624866;39;20458;-58
2021/08/08 02:12:13;;;;;;;8.00;7.60;;;23.20;99.00;;;;;;3626471;39;20807;-58
2021/08/08 02:14:41;;;;;;;8.10;7.80;;;23.20;99.00;;;;;;3625553;39;20450;-58
2021/08/08 02:17:10;;;;;;;7.93;7.63;;;23.20;99.10;;;;;;3625238;39;20439;-59
2021/08/08 02:19:43;;;;;;;8.13;7.73;;;23.20;99.00;;;;;;3626868;39;20807;-58
2021/08/08 02:22:11;;;;;;;8.20;7.80;;;23.20;99.00;;;;;;3625727;39;20487;-57
2021/08/08 02:24:46;;;;;;;8.47;8.07;;;23.20;99.00;;;;;;3624928;39;20442;-57
2021/08/08 02:27:20;;;;;;;8.70;8.20;;;23.20;99.00;;;;;;3617050;39;20501;-55
2021/08/08 02:29:57;;;;;;;8.03;7.73;;;23.20;99.00;;;;;;3626024;39;20744;-55
2021/08/08 02:32:24;;;;;;;7.83;7.53;;;23.20;99.00;;;;;;3626193;39;20455;-57
2021/08/08 02:34:52;;;;;;;8.23;7.73;;;23.20;99.00;;;;;;3626480;39;20855;-57
2021/08/08 02:37:21;;;;;;;7.87;7.57;;;23.20;99.00;;;;;;3625983;39;20434;-57
2021/08/08 02:39:53;;;;;;;7.63;7.33;;;23.20;99.00;;;;;;3626007;39;20447;-57
2021/08/08 02:42:22;;;;;;;7.60;7.30;;;23.20;99.00;;;;;;3626277;39;20492;-58
2021/08/08 02:44:50;;;;;;;8.83;8.10;;;23.20;99.00;;;;;;3625683;39;20463;-58
2021/08/08 02:47:18;;;;;;;7.67;7.37;;;23.20;99.00;;;;;;3625772;39;20461;-59
2021/08/08 02:49:46;;;;;;;7.93;7.63;;;23.20;99.00;;;;;;3625179;39;20473;-58
2021/08/08 02:52:13;;;;;;;8.37;7.97;;;23.20;99.00;;;;;;3626467;39;20906;-55
2021/08/08 02:54:41;;;;;;;8.47;8.07;;;23.20;99.00;;;;;;3625946;39;20745;-55
2021/08/08 02:57:10;;;;;;;8.00;7.60;;;23.20;98.90;;;;;;3625290;39;20443;-58
2021/08/08 02:59:39;;;;;;;8.63;8.10;;;23.20;98.90;;;;;;3625883;39;20486;-57
2021/08/08 03:02:06;;;;;;;8.27;7.97;;;23.20;98.90;;;;;;3626458;39;20446;-58
2021/08/08 03:04:35;;;;;;;8.10;7.80;;;23.20;98.90;;;;;;3625642;39;20827;-56
2021/08/08 03:07:03;;;;;;;8.30;8.00;;;23.20;98.90;;;;;;3625057;39;20471;-58
2021/08/08 03:09:32;;;;;;;7.73;7.53;;;23.20;98.90;;;;;;3617020;39;20461;-58
2021/08/08 03:12:01;;;;;;;8.57;8.07;;;23.20;98.90;;;;;;3625064;39;20450;-56
2021/08/08 03:14:34;;;;;;;8.27;7.97;;;23.20;98.90;;;;;;3625200;39;20467;-57
2021/08/08 03:17:03;;;;;;;8.50;8.17;;;23.20;98.90;;;;;;3625929;39;20800;-58
2021/08/08 03:19:31;;;;;;;8.70;8.30;;;23.20;98.90;;;;;;3617142;39;20450;-58
2021/08/08 03:21:59;;;;;;;8.57;8.13;;;23.20;98.90;;;;;;3625572;39;20445;-56
2021/08/08 03:24:26;;;;;;;8.53;8.03;;;23.20;98.90;;;;;;3625012;39;20888;-57
2021/08/08 03:26:56;;;;;;;8.13;7.73;;;23.20;98.90;;;;;;3625204;39;20549;-58
2021/08/08 03:29:24;;;;;;;8.20;7.90;;;23.20;98.90;;;;;;3625050;39;21137;-58
2021/08/08 03:31:53;;;;;;;8.23;7.93;;;23.20;98.90;;;;;;3625974;39;20747;-58
2021/08/08 03:34:23;;;;;;;8.50;8.20;;;23.20;98.90;;;;;;3625607;39;20469;-57
2021/08/08 03:36:50;;;;;;;8.10;7.80;;;23.20;98.90;;;;;;3625207;39;20455;-58
2021/08/08 03:39:23;;;;;;;7.73;7.37;;;23.20;98.90;;;;;;3626077;39;20443;-56
2021/08/08 03:41:50;;;;;;;8.00;7.70;;;23.20;98.90;;;;;;3626018;39;20467;-57
2021/08/08 03:44:19;;;;;;;8.00;7.73;;;23.20;98.90;;;;;;3624848;39;20447;-56
2021/08/08 03:46:47;;;;;;;7.70;7.40;;;23.20;98.90;;;;;;3625187;39;20458;-58
2021/08/08 03:49:15;;;;;;;8.40;8.10;;;23.20;98.90;;;;;;3625017;39;20814;-58
2021/08/08 03:51:44;;;;;;;8.37;8.07;;;23.20;98.80;;;;;;3624305;39;20490;-56
2021/08/08 03:54:11;;;;;;;8.20;7.80;;;23.20;98.90;;;;;;3624829;39;20675;-57
2021/08/08 03:56:39;;;;;;;8.20;7.90;;;23.20;98.80;;;;;;3625689;39;20483;-57
2021/08/08 03:59:07;;;;;;;8.53;8.23;;;23.20;98.80;;;;;;3624843;39;20447;-58
2021/08/08 04:01:35;;;;;;;8.20;7.90;;;23.20;98.80;;;;;;3624855;39;20450;-58
2021/08/08 04:04:03;;;;;;;8.00;7.70;;;23.20;98.80;;;;;;3624400;39;20473;-58
2021/08/08 04:06:30;;;;;;;8.40;8.10;;;23.20;98.80;;;;;;3624419;39;20542;-58
2021/08/08 04:09:00;;;;;;;8.43;8.13;;;23.20;98.80;;;;;;3626210;39;20462;-59
2021/08/08 04:11:27;;;;;;;8.20;7.80;;;23.20;98.80;;;;;;3626638;39;20481;-57
2021/08/08 04:13:55;;;;;;;7.83;7.57;;;23.20;98.80;;;;;;3618147;39;20680;-56
2021/08/08 04:16:22;;;;;;;7.70;7.50;;;23.20;98.80;;;;;;3626916;39;20442;-54
2021/08/08 04:18:50;;;;;;;8.33;8.00;;;23.20;98.80;;;;;;3625819;39;20535;-57
2021/08/08 04:21:18;;;;;;;8.83;8.33;;;23.20;98.80;;;;;;3626299;39;20483;-57
2021/08/08 04:23:46;;;;;;;8.20;7.90;;;23.20;98.80;;;;;;3626221;39;20539;-57
2021/08/08 04:26:14;;;;;;;7.57;7.37;;;23.20;98.80;;;;;;3627497;39;20482;-57
2021/08/08 04:28:42;;;;;;;7.63;7.23;;;23.20;99.10;;;;;;3625749;39;20454;-57
2021/08/08 04:31:11;;;;;;;8.10;7.80;;;23.20;98.80;;;;;;3625738;39;20478;-57
2021/08/08 04:33:40;;;;;;;7.77;7.47;;;23.20;98.80;;;;;;3625797;39;20450;-58
2021/08/08 04:36:09;;;;;;;8.07;7.77;;;23.20;98.80;;;;;;3625846;39;20454;-57
2021/08/08 04:38:36;;;;;;;7.97;7.67;;;23.20;98.80;;;;;;3626846;39;20450;-56
2021/08/08 04:41:04;;;;;;;8.07;7.47;;;23.20;98.80;;;;;;3626285;39;20510;-58
2021/08/08 04:43:33;;;;;;;8.40;8.10;;;23.20;98.80;;;;;;3626429;39;20458;-58
2021/08/08 04:46:00;;;;;;;7.97;7.67;;;23.20;98.80;;;;;;3626070;39;20455;-57
2021/08/08 04:48:29;;;;;;;8.80;8.50;;;23.20;98.80;;;;;;3625713;39;20711;-57
2021/08/08 04:50:56;;;;;;;8.33;8.00;;;23.20;98.80;;;;;;3626590;39;20460;-58
2021/08/08 04:53:24;;;;;;;8.30;8.00;;;23.20;98.80;;;;;;3626140;39;20527;-57
2021/08/08 04:55:51;;;;;;;8.20;7.90;;;23.20;98.80;;;;;;3625883;39;20471;-59
2021/08/08 04:58:18;;;;;;;9.10;8.60;;;23.20;98.80;;;;;;3625920;39;20527;-57
2021/08/08 05:00:48;;;;;;;7.97;7.77;;;23.20;98.80;;;;;;3626102;39;20442;-57
2021/08/08 05:03:16;;;;;;;7.80;7.50;;;23.20;98.70;;;;;;3625887;39;20452;-58
2021/08/08 05:05:43;;;;;;;8.20;7.90;;;23.20;98.70;;;;;;3626644;39;20439;-58
2021/08/08 05:08:10;;;;;;;8.10;7.70;;;23.20;98.80;;;;;;3626225;39;20454;-59
2021/08/08 05:10:39;;;;;;;8.70;8.30;;;23.20;98.70;;;;;;3626073;39;20455;-56
2021/08/08 05:13:07;;;;;;;8.00;7.80;;;23.20;98.70;;;;;;3626637;39;20710;-54
2021/08/08 05:15:34;;;;;;;8.90;8.50;;;23.20;98.70;;;;;;3625633;39;21053;-57
2021/08/08 05:18:04;;;;;;;8.03;7.73;;;23.20;98.80;;;;;;3625917;39;20478;-58
2021/08/08 05:20:31;;;;;;;8.60;8.20;;;23.20;98.70;;;;;;3626784;39;20539;-58
2021/08/08 05:23:01;;;;;;;8.80;8.30;;;23.20;98.70;;;;;;3625369;39;20868;-57
2021/08/08 05:25:28;;;;;;;8.10;7.90;;;23.20;98.70;;;;;;3625408;39;20877;-57
2021/08/08 05:27:55;;;;;;;7.73;7.50;;;23.20;98.70;;;;;;3624457;39;20534;-57
2021/08/08 05:30:23;;;;;;;7.40;7.10;;;23.20;98.70;;;;;;3625791;39;20462;-57
2021/08/08 05:32:50;;;;;;;8.10;7.77;;;23.20;98.70;;;;;;3626178;39;20467;-58
2021/08/08 05:35:19;;;;;;;8.77;8.37;;;23.20;98.70;;;;;;3624986;39;21081;-57
2021/08/08 05:37:47;;;;;;;8.10;7.60;;;23.20;98.70;;;;;;3624975;39;20463;-58
2021/08/08 05:40:15;;;;;;;7.50;7.30;;;23.20;98.70;;;;;;3626233;39;20514;-57
2021/08/08 05:42:50;;;;;;;8.30;8.00;;;23.30;98.70;;;;;;3625214;39;20450;-58
2021/08/08 05:45:21;;;;;;;7.57;7.30;;;23.20;98.70;;;;;;3625884;39;20452;-57
2021/08/08 05:47:48;;;;;;;8.10;7.70;;;23.20;98.70;;;;;;3626214;39;20720;-57
2021/08/08 05:50:19;;;;;;;8.00;7.70;;;23.30;98.70;;;;;;3625222;39;20461;-57
2021/08/08 05:52:48;;;;;;;8.53;8.13;;;23.30;98.70;;;;;;3625441;39;20447;-55
2021/08/08 05:55:16;;;;;;;8.43;8.03;;;23.30;98.70;;;;;;3625952;39;20936;-57
2021/08/08 05:57:43;;;;;;;8.47;7.70;;;23.30;98.70;;;;;;3625047;39;20835;-58
2021/08/08 06:00:12;;;;;;;8.00;7.60;;;23.30;98.70;;;;;;3625465;39;20451;-57
2021/08/08 06:02:52;;;;;;;9.23;8.60;;;23.30;98.70;;;;;;3625899;39;20477;-57
2021/08/08 06:05:24;;;;;;;8.37;7.87;;;23.20;98.60;;;;;;3624074;39;20459;-58
2021/08/08 06:07:53;;;;;;;8.07;7.57;;;23.20;98.70;;;;;;3625128;39;20848;-58
2021/08/08 06:10:20;;;;;;;8.63;8.23;;;23.20;98.70;;;;;;3625660;39;20470;-58
2021/08/08 06:12:48;;;;;;;8.70;8.10;;;23.20;98.70;;;;;;3624831;39;20870;-57
2021/08/08 06:15:15;;;;;;;8.30;7.80;;;23.20;98.70;;;;;;3624371;39;20455;-58
2021/08/08 06:17:43;;;;;;;8.07;7.70;;;23.20;98.70;;;;;;3624663;39;20466;-58
2021/08/08 06:20:11;;;;;;;7.97;7.67;;;23.20;98.70;;;;;;3624816;39;20502;-57
2021/08/08 06:22:43;;;;;;;8.30;7.80;;;23.30;98.70;;;;;;3625207;39;20498;-58
2021/08/08 06:25:11;;;;;;;9.00;8.50;;;23.30;98.70;;;;;;3616276;39;20471;-57
2021/08/08 06:27:39;;;;;;;9.10;8.40;;;23.30;98.70;;;;;;3623513;39;20451;-57
2021/08/08 06:30:07;;;;;;;8.40;7.90;;;23.30;98.70;;;;;;3623921;39;20455;-56
2021/08/08 06:32:35;;;;;;;8.30;7.90;;;23.30;98.70;;;;;;3623915;39;20462;-58
2021/08/08 06:35:03;;;;;;;8.30;7.80;;;23.30;98.70;;;;;;3624863;39;20466;-58
2021/08/08 06:37:31;;;;;;;8.47;7.97;;;23.30;98.70;;;;;;3625500;39;20438;-58
2021/08/08 06:40:00;;;;;;;7.60;7.20;;;23.30;98.90;;;;;;3623789;39;20510;-56
2021/08/08 06:42:28;;;;;;;8.20;7.70;;;23.30;98.70;;;;;;3626164;39;20547;-57
2021/08/08 06:44:57;;;;;;;7.90;7.60;;;23.30;98.70;;;;;;3624761;39;20484;-57
2021/08/08 06:47:25;;;;;;;8.60;8.20;;;23.30;98.70;;;;;;3622967;39;20438;-57
2021/08/08 06:49:52;;;;;;;7.87;7.57;;;23.30;98.70;;;;;;3623972;39;20471;-58
2021/08/08 06:52:20;;;;;;;7.90;7.53;;;23.30;98.70;;;;;;3624540;39;20523;-58
2021/08/08 06:54:47;;;;;;;13.30;8.13;;;23.30;98.70;;;;;;3623477;39;20451;-58
2021/08/08 06:57:24;;;;;;;7.83;7.53;;;23.30;98.70;;;;;;3624413;39;20450;-58
2021/08/08 06:59:54;;;;;;;7.90;7.60;;;23.30;98.70;;;;;;3615138;39;20864;-58
2021/08/08 07:02:22;;;;;;;9.07;7.80;;;23.30;98.70;;;;;;3624905;39;20465;-57
2021/08/08 07:04:49;;;;;;;9.03;8.53;;;23.40;98.70;;;;;;3625008;39;20470;-58
2021/08/08 07:07:16;;;;;;;8.70;8.10;;;23.40;98.70;;;;;;3624186;39;20471;-57
2021/08/08 07:09:44;;;;;;;8.37;8.00;;;23.40;98.70;;;;;;3624779;39;20451;-58
2021/08/08 07:12:12;;;;;;;8.40;8.00;;;23.40;98.80;;;;;;3623530;39;20477;-58
2021/08/08 07:14:45;;;;;;;8.70;8.33;;;23.40;98.80;;;;;;3624046;39;20451;-58
2021/08/08 07:17:13;;;;;;;9.37;8.57;;;23.40;98.80;;;;;;3624308;39;20512;-58
2021/08/08 07:19:42;;;;;;;8.70;7.90;;;23.40;98.90;;;;;;3624052;39;20446;-58
2021/08/08 07:22:09;;;;;;;7.50;7.30;;;23.40;98.90;;;;;;3624279;39;20458;-64
2021/08/08 07:24:39;;;;;;;7.63;7.43;;;23.20;97.40;;;;;;3623687;39;20449;-57
2021/08/08 07:27:08;;;;;;;7.80;7.50;;;23.10;97.70;;;;;;3624240;39;20462;-57
2021/08/08 07:29:35;;;;;;;8.17;7.87;;;22.90;97.70;;;;;;3625164;39;20539;-53
2021/08/08 07:32:07;;;;;;;8.30;8.00;;;22.80;97.70;;;;;;3624409;39;20457;-55
2021/08/08 07:34:35;;;;;;;7.70;7.40;;;22.70;97.40;;;;;;3624797;39;20450;-55
2021/08/08 07:37:02;;;;;;;8.40;7.80;;;22.70;97.80;;;;;;3625019;39;20470;-54
2021/08/08 07:39:34;;;;;;;8.83;8.30;;;22.70;97.90;;;;;;3623907;39;20523;-55
2021/08/08 07:42:02;;;;;;;7.67;7.47;;;22.70;97.70;;;;;;3623244;39;20499;-56
2021/08/08 07:44:29;;;;;;;7.97;7.77;;;22.70;97.40;;;;;;3625203;39;20454;-55
2021/08/08 07:46:57;;;;;;;7.73;7.40;;;22.70;97.40;;;;;;3625359;39;20502;-56
2021/08/08 07:49:27;;;;;;;7.47;7.27;;;22.70;97.30;;;;;;3625405;39;20442;-56
2021/08/08 07:51:55;;;;;;;8.30;7.90;;;22.70;97.40;;;;;;3624423;39;20571;-54
2021/08/08 07:54:22;;;;;;;7.83;7.60;;;22.70;97.20;;;;;;3625251;39;20462;-56
2021/08/08 07:56:51;;;;;;;8.57;8.13;;;22.70;97.30;;;;;;3625201;39;20480;-53
2021/08/08 07:59:19;;;;;;;7.70;7.50;;;22.80;97.20;;;;;;3624921;39;20915;-57
2021/08/08 08:01:46;;;;;;;8.10;7.90;;;22.80;97.10;;;;;;3625298;39;20446;-56
2021/08/08 08:04:13;;;;;;;8.43;8.23;;;22.90;97.20;;;;;;3625127;39;20530;-50
2021/08/08 08:06:45;;;;;;;9.27;8.87;;;23.00;97.10;;;;;;3625510;39;20446;-55
2021/08/08 08:09:13;;;;;;;8.20;7.90;;;23.00;97.20;;;;;;3626236;39;20712;-56
2021/08/08 08:11:41;;;;;;;8.53;8.33;;;23.10;97.10;;;;;;3625128;39;20815;-56
2021/08/08 08:14:10;;;;;;;8.50;8.20;;;23.10;97.10;;;;;;3624450;39;20551;-57
2021/08/08 08:16:37;;;;;;;9.37;8.77;;;23.10;96.30;;;;;;3624058;39;20459;-57
2021/08/08 08:19:08;;;;;;;9.40;9.10;;;23.10;96.50;;;;;;3624252;39;20470;-58
2021/08/08 08:21:36;;;;;;;9.07;8.60;;;23.10;96.20;;;;;;3624143;39;20453;-56
2021/08/08 08:24:05;;;;;;;8.53;8.13;;;23.10;96.10;;;;;;3623577;39;20450;-62
2021/08/08 08:26:33;;;;;;;8.07;7.67;;;23.10;96.20;;;;;;3623000;39;20459;-59
2021/08/08 08:29:00;;;;;;;8.23;7.93;;;23.00;95.80;;;;;;3622836;39;20551;-57
2021/08/08 08:31:28;;;;;;;8.60;8.20;;;23.00;96.10;;;;;;3623180;39;20513;-58
2021/08/08 08:33:55;;;;;;;7.77;7.57;;;22.90;96.10;;;;;;3624134;39;20562;-58
2021/08/08 08:36:23;;;;;;;8.63;8.20;;;22.90;96.20;;;;;;3622958;39;20474;-58
2021/08/08 08:38:51;;;;;;;7.50;7.30;;;23.00;96.10;;;;;;3623959;39;20454;-58
2021/08/08 08:41:27;;;;;;;7.93;7.63;;;23.00;96.20;;;;;;3625652;39;20459;-58
2021/08/08 08:43:55;;;;;;;7.73;7.53;;;23.00;96.00;;;;;;3623145;39;20840;-57
2021/08/08 08:46:23;;;;;;;8.00;7.70;;;23.00;96.00;;;;;;3623434;39;20489;-58
2021/08/08 08:48:54;;;;;;;7.40;7.20;;;23.00;96.00;;;;;;3622512;39;20458;-58
2021/08/08 08:51:27;;;;;;;7.90;7.60;;;23.00;96.10;;;;;;3622683;39;20467;-58
2021/08/08 08:53:56;;;;;;;8.17;7.77;;;23.10;96.20;;;;;;3622255;39;20461;-59
2021/08/08 08:56:25;;;;;;;7.90;7.60;;;23.20;96.30;;;;;;3621548;39;20467;-57
2021/08/08 08:58:52;;;;;;;7.83;7.40;;;23.20;96.30;;;;;;3623400;39;20450;-58
2021/08/08 09:01:20;;;;;;;7.47;7.07;;;23.20;96.30;;;;;;3623631;39;20512;-57
2021/08/08 09:03:50;;;;;;;7.63;7.33;;;23.30;95.90;;;;;;3622523;39;20467;-57
2021/08/08 09:06:18;;;;;;;7.50;7.30;;;23.30;95.90;;;;;;3623587;39;20486;-55
2021/08/08 09:08:45;;;;;;;7.90;7.50;;;23.30;95.90;;;;;;3623530;39;20439;-57
2021/08/08 09:11:12;;;;;;;7.83;7.43;;;23.30;95.90;;;;;;3623226;39;20467;-56
2021/08/08 09:13:55;;;;;;;7.17;6.97;;;23.30;95.90;;;;;;3624282;39;20557;-57
2021/08/08 09:16:25;;;;;;;8.20;7.93;;;23.30;95.40;;;;;;3623787;39;20458;-60
2021/08/08 09:18:56;;;;;;;7.60;7.30;;;23.30;95.10;;;;;;3623226;39;20807;-59
2021/08/08 09:21:27;;;;;;;7.10;6.90;;;23.20;94.30;;;;;;3624118;39;20453;-56
2021/08/08 09:23:57;;;;;;;7.63;7.33;;;23.20;94.50;;;;;;3622772;39;20438;-57
2021/08/08 09:26:31;;;;;;;7.53;7.17;;;23.30;94.70;;;;;;3622443;39;20481;-58
2021/08/08 09:29:16;;;;;;;8.03;7.73;;;23.30;94.80;;;;;;3623241;39;20466;-58
2021/08/08 09:31:47;;;;;;;8.20;7.90;;;23.30;95.00;;;;;;3623852;39;20761;-58
2021/08/08 09:34:24;;;;;;;7.77;7.57;;;23.30;94.90;;;;;;3622205;39;20450;-58
2021/08/08 09:36:53;;;;;;;7.63;7.43;;;23.30;94.20;;;;;;3624019;39;20449;-58
2021/08/08 09:39:31;;;;;;;7.60;7.40;;;23.30;94.20;;;;;;3623709;39;20505;-57
2021/08/08 09:42:06;;;;;;;7.83;7.60;;;23.30;94.30;;;;;;3622557;39;20460;-57
2021/08/08 09:44:36;;;;;;;8.40;8.00;;;23.30;94.20;;;;;;3624862;39;20450;-57
2021/08/08 09:47:03;;;;;;;8.33;7.83;;;23.30;94.30;;;;;;3624323;39;20883;-57
2021/08/08 09:49:30;;;;;;;8.70;8.27;;;23.30;94.30;;;;;;3624287;39;21026;-58
2021/08/08 09:52:22;;;;;;;8.53;8.10;;;23.40;94.30;;;;;;3625070;39;20562;-58
2021/08/08 09:54:49;;;;;;;8.27;7.90;;;23.40;94.20;;;;;;3625358;39;20461;-58
2021/08/08 09:57:16;;;;;;;8.37;7.97;;;23.40;94.20;;;;;;3623545;39;20470;-58
2021/08/08 09:59:49;;;;;;;8.47;8.27;;;23.40;94.00;;;;;;3623126;39;20455;-58
2021/08/08 10:02:19;;;;;;;8.40;8.10;;;23.40;94.00;;;;;;3623703;39;20450;-57
2021/08/08 10:04:47;;;;;;;8.23;8.00;;;23.40;94.10;;;;;;3624035;39;20446;-58
2021/08/08 10:07:17;;;;;;;9.13;8.83;;;23.40;94.10;;;;;;3624431;39;20446;-56
2021/08/08 10:09:46;;;;;;;8.87;8.57;;;23.40;94.10;;;;;;3624250;39;20458;-59
2021/08/08 10:12:36;;;;;;;9.23;8.80;;;23.40;93.20;;;;;;3624152;39;20455;-58
2021/08/08 10:15:06;;;;;;;8.80;8.50;;;23.40;93.30;;;;;;3624233;39;20458;-56
2021/08/08 10:17:35;;;;;;;8.93;8.63;;;23.40;93.40;;;;;;3623356;39;20570;-58
2021/08/08 10:20:03;;;;;;;8.73;8.40;;;23.40;92.80;;;;;;3622392;39;20455;-58
2021/08/08 10:22:34;;;;;;;9.33;8.50;;;23.40;92.50;;;;;;3622672;39;20442;-58
2021/08/08 10:25:03;;;;;;;9.60;9.00;;;23.40;92.60;;;;;;3620442;39;20475;-58
2021/08/08 10:27:31;;;;;;;9.67;9.10;;;23.40;92.80;;;;;;3622335;39;20451;-57
2021/08/08 10:30:00;;;;;;;9.60;9.20;;;23.40;92.90;;;;;;3621948;39;20562;-58
2021/08/08 10:32:30;;;;;;;9.10;8.70;;;23.40;93.00;;;;;;3623036;39;20451;-58
2021/08/08 10:34:57;;;;;;;9.60;9.00;;;23.40;93.10;;;;;;3619980;39;20500;-58
2021/08/08 10:37:26;;;;;;;9.77;9.30;;;23.40;93.10;;;;;;3621848;39;20467;-58
2021/08/08 10:39:54;;;;;;;10.83;9.67;;;23.40;93.40;;;;;;3622634;39;20470;-59
2021/08/08 10:42:24;;;;;;;9.27;8.77;;;23.40;93.10;;;;;;3622266;39;20490;-59
2021/08/08 10:44:53;;;;;;;9.40;8.70;;;23.40;93.10;;;;;;3623331;39;20502;-58
2021/08/08 10:47:29;;;;;;;8.87;8.40;;;23.40;93.10;;;;;;3622697;39;20474;-59
2021/08/08 10:50:08;;;;;;;9.47;8.97;;;23.40;93.40;;;;;;3623408;39;20443;-58
2021/08/08 10:52:39;;;;;;;9.60;9.17;;;23.40;93.20;;;;;;3624634;39;20470;-58
2021/08/08 10:55:08;;;;;;;9.23;8.87;;;23.40;93.00;;;;;;3623497;39;20455;-59
2021/08/08 10:57:43;;;;;;;9.37;8.83;;;23.40;92.90;;;;;;3623550;39;20466;-58
2021/08/08 11:00:14;;;;;;;9.00;8.50;;;23.40;93.00;;;;;;3623246;39;20462;-58
2021/08/08 11:02:44;;;;;;;9.40;9.00;;;23.40;93.00;;;;;;3622747;39;20508;-57
2021/08/08 11:05:13;;;;;;;9.70;9.00;;;23.40;93.00;;;;;;3622326;39;20443;-59
2021/08/08 11:07:42;;;;;;;9.30;8.90;;;23.40;92.70;;;;;;3621180;39;20766;-57
2021/08/08 11:10:11;;;;;;;9.57;9.00;;;23.40;92.60;;;;;;3622145;39;20518;-58
2021/08/08 11:12:40;;;;;;;10.10;9.50;;;23.40;92.70;;;;;;3622086;39;20518;-58
2021/08/08 11:15:10;;;;;;;9.40;9.00;;;23.40;92.90;;;;;;3621895;39;20478;-58
2021/08/08 11:17:37;;;;;;;9.03;8.67;;;23.40;93.00;;;;;;3622247;39;20724;-58
2021/08/08 11:20:07;;;;;;;8.83;8.43;;;23.40;93.00;;;;;;3622810;39;20534;-58
2021/08/08 11:22:34;;;;;;;8.73;8.43;;;23.50;92.90;;;;;;3622460;39;21246;-57
2021/08/08 11:25:04;;;;;;;9.07;8.57;;;23.50;92.80;;;;;;3621521;39;20485;-58
2021/08/08 11:27:35;;;;;;;8.60;8.20;;;23.50;92.80;;;;;;3622416;39;21062;-59
2021/08/08 11:30:04;;;;;;;9.70;9.20;;;23.50;92.70;;;;;;3622556;39;20674;-58
2021/08/08 11:32:33;;;;;;;8.17;7.77;;;23.50;92.70;;;;;;3622216;39;20466;-59
2021/08/08 11:35:02;;;;;;;9.20;8.60;;;23.50;92.70;;;;;;3620804;39;20466;-59
2021/08/08 11:37:33;;;;;;;8.50;8.20;;;23.50;92.20;;;;;;3622650;39;20446;-56
2021/08/08 11:40:00;;;;;;;8.40;8.20;;;23.50;92.00;;;;;;3623107;39;20964;-58
2021/08/08 11:42:32;;;;;;;8.60;8.10;;;23.50;92.30;;;;;;3623561;39;20446;-59
2021/08/08 11:45:00;;;;;;;8.70;8.50;;;23.50;92.40;;;;;;3623735;39;20775;-58
2021/08/08 11:47:28;;;;;;;9.10;8.60;;;23.50;92.40;;;;;;3624021;39;20454;-58
2021/08/08 11:49:56;;;;;;;8.90;8.40;;;23.50;92.40;;;;;;3623460;39;20470;-58
2021/08/08 11:52:23;;;;;;;8.90;8.50;;;23.50;92.40;;;;;;3614012;39;20482;-59
2021/08/08 11:55:01;;;;;;;9.10;8.80;;;23.50;92.50;;;;;;3622281;39;20454;-58
2021/08/08 11:57:32;;;;;;;9.07;8.57;;;23.50;92.40;;;;;;3620758;39;20459;-58
2021/08/08 12:00:00;;;;;;;8.97;8.67;;;23.50;92.50;;;;;;3623247;39;20455;-57
2021/08/08 12:02:29;;;;;;;8.93;8.63;;;23.50;92.50;;;;;;3622341;39;20458;-59
2021/08/08 12:04:58;;;;;;;9.40;9.00;;;23.50;92.50;;;;;;3624249;39;20447;-59
2021/08/08 12:07:28;;;;;;;8.43;8.23;;;23.50;92.50;;;;;;3623769;39;20459;-59
2021/08/08 12:09:59;;;;;;;9.27;8.93;;;23.50;92.50;;;;;;3623601;39;20474;-59
2021/08/08 12:12:35;;;;;;;8.33;8.00;;;23.50;92.30;;;;;;3623674;39;20454;-59
2021/08/08 12:15:03;;;;;;;8.47;8.27;;;23.50;92.30;;;;;;3624437;39;20854;-57
2021/08/08 12:17:31;;;;;;;8.40;8.10;;;23.50;92.30;;;;;;3621856;39;20447;-58
2021/08/08 12:20:09;;;;;;;8.60;8.30;;;23.50;91.90;;;;;;3621715;39;20924;-58
2021/08/08 12:22:37;;;;;;;9.40;9.10;;;23.50;91.50;;;;;;3622277;39;20506;-57
2021/08/08 12:25:06;;;;;;;8.70;8.40;;;23.50;91.50;;;;;;3620365;39;21120;-59
2021/08/08 12:27:37;;;;;;;9.07;8.47;;;23.50;91.60;;;;;;3622973;39;20872;-57
2021/08/08 12:30:07;;;;;;;8.90;8.50;;;23.50;91.60;;;;;;3623440;39;20752;-58
2021/08/08 12:32:37;;;;;;;9.30;9.00;;;23.50;91.60;;;;;;3623629;39;20458;-58
2021/08/08 12:35:09;;;;;;;9.87;9.37;;;23.50;91.60;;;;;;3622968;39;21028;-57
2021/08/08 12:37:38;;;;;;;9.50;9.20;;;23.50;91.60;;;;;;3623886;39;20453;-58
2021/08/08 12:40:09;;;;;;;10.03;9.60;;;23.50;91.40;;;;;;3625012;39;20840;-58
2021/08/08 12:42:39;;;;;;;10.13;9.73;;;23.50;91.20;;;;;;3624811;39;20486;-57
2021/08/08 12:45:08;;;;;;;10.00;9.40;;;23.50;91.20;;;;;;3623140;39;20459;-59
2021/08/08 12:47:36;;;;;;;10.00;9.60;;;23.40;91.20;;;;;;3622980;39;20486;-57
2021/08/08 12:50:15;;;;;;;9.90;9.50;;;23.40;91.00;;;;;;3623942;39;20441;-58
2021/08/08 12:52:42;;;;;;;9.00;8.70;;;23.40;90.80;;;;;;3624300;39;20481;-58
2021/08/08 12:55:12;;;;;;;9.67;9.27;;;23.40;90.60;;;;;;3623765;39;20544;-58
2021/08/08 12:57:41;;;;;;;9.70;9.10;;;23.40;90.10;;;;;;3623879;39;20489;-58